sensor_id;sensor_type;location;lat;lon;timestamp;temperature;humidity
22633;DHT22;11483;55.828;37.488;2023-06-10T00:02:11;12.80;99.90
22633;DHT22;11483;55.828;37.488;2023-06-10T00:04:37;12.80;99.90
22633;DHT22;11483;55.828;37.488;2023-06-10T00:07:04;12.80;99.90
22633;DHT22;11483;55.828;37.488;2023-06-10T00:09:40;12.80;99.90
22633;DHT22;11483;55.828;37.488;2023-06-10T00:12:07;12.70;99.90
22633;DHT22;11483;55.828;37.488;2023-06-10T00:14:37;12.70;99.90
22633;DHT22;11483;55.828;37.488;2023-06-10T00:17:04;12.70;99.90
22633;DHT22;11483;55.828;37.488;2023-06-10T00:19:29;12.60;99.90
22633;DHT22;11483;55.828;37.488;2023-06-10T00:21:56;12.60;99.90
22633;DHT22;11483;55.828;37.488;2023-06-10T00:24:22;12.60;99.90
22633;DHT22;11483;55.828;37.488;2023-06-10T00:26:48;12.60;99.90
22633;DHT22;11483;55.828;37.488;2023-06-10T00:29:15;12.60;99.90
22633;DHT22;11483;55.828;37.488;2023-06-10T00:31:41;12.60;99.90
22633;DHT22;11483;55.828;37.488;2023-06-10T00:34:07;12.60;99.90
22633;DHT22;11483;55.828;37.488;2023-06-10T00:36:33;12.60;99.90
22633;DHT22;11483;55.828;37.488;2023-06-10T00:39:01;12.50;99.90
22633;DHT22;11483;55.828;37.488;2023-06-10T00:41:27;12.50;99.90
22633;DHT22;11483;55.828;37.488;2023-06-10T00:43:52;12.50;99.90
22633;DHT22;11483;55.828;37.488;2023-06-10T00:46:19;12.50;99.90
22633;DHT22;11483;55.828;37.488;2023-06-10T00:48:45;12.50;99.90
22633;DHT22;11483;55.828;37.488;2023-06-10T00:51:12;12.50;99.90
22633;DHT22;11483;55.828;37.488;2023-06-10T00:53:40;12.40;99.90
22633;DHT22;11483;55.828;37.488;2023-06-10T00:56:07;12.30;99.90
22633;DHT22;11483;55.828;37.488;2023-06-10T00:58:33;12.30;99.90
22633;DHT22;11483;55.828;37.488;2023-06-10T01:00:59;12.20;99.90
22633;DHT22;11483;55.828;37.488;2023-06-10T01:03:26;12.10;99.90
22633;DHT22;11483;55.828;37.488;2023-06-10T01:09:06;12.00;99.90
22633;DHT22;11483;55.828;37.488;2023-06-10T01:11:43;11.90;99.90
22633;DHT22;11483;55.828;37.488;2023-06-10T01:14:10;11.90;99.90
22633;DHT22;11483;55.828;37.488;2023-06-10T01:16:37;11.80;99.90
22633;DHT22;11483;55.828;37.488;2023-06-10T01:19:07;11.80;99.90
22633;DHT22;11483;55.828;37.488;2023-06-10T01:21:33;11.80;99.90
22633;DHT22;11483;55.828;37.488;2023-06-10T01:23:59;11.70;99.90
22633;DHT22;11483;55.828;37.488;2023-06-10T01:26:34;11.70;99.90
22633;DHT22;11483;55.828;37.488;2023-06-10T01:29:07;11.70;99.90
22633;DHT22;11483;55.828;37.488;2023-06-10T01:34:12;11.80;99.90
22633;DHT22;11483;55.828;37.488;2023-06-10T01:36:40;11.80;99.90
22633;DHT22;11483;55.828;37.488;2023-06-10T01:39:08;11.80;99.90
22633;DHT22;11483;55.828;37.488;2023-06-10T01:41:35;11.80;99.90
22633;DHT22;11483;55.828;37.488;2023-06-10T01:44:01;11.80;99.90
22633;DHT22;11483;55.828;37.488;2023-06-10T01:46:26;11.80;99.90
22633;DHT22;11483;55.828;37.488;2023-06-10T01:48:52;11.80;99.90
22633;DHT22;11483;55.828;37.488;2023-06-10T01:51:18;11.80;99.90
22633;DHT22;11483;55.828;37.488;2023-06-10T01:53:44;11.70;99.90
22633;DHT22;11483;55.828;37.488;2023-06-10T01:56:10;11.70;99.90
22633;DHT22;11483;55.828;37.488;2023-06-10T01:58:35;11.70;99.90
22633;DHT22;11483;55.828;37.488;2023-06-10T02:01:01;11.60;99.90
22633;DHT22;11483;55.828;37.488;2023-06-10T02:03:27;11.60;99.90
22633;DHT22;11483;55.828;37.488;2023-06-10T02:05:53;11.60;99.90
22633;DHT22;11483;55.828;37.488;2023-06-10T02:08:19;11.60;99.90
22633;DHT22;11483;55.828;37.488;2023-06-10T02:10:45;11.60;99.90
22633;DHT22;11483;55.828;37.488;2023-06-10T02:13:11;11.60;99.90
22633;DHT22;11483;55.828;37.488;2023-06-10T02:15:36;11.60;99.90
22633;DHT22;11483;55.828;37.488;2023-06-10T02:18:02;11.60;99.90
22633;DHT22;11483;55.828;37.488;2023-06-10T02:20:28;11.60;99.90
22633;DHT22;11483;55.828;37.488;2023-06-10T02:22:54;11.50;99.90
22633;DHT22;11483;55.828;37.488;2023-06-10T02:25:20;11.50;99.90
22633;DHT22;11483;55.828;37.488;2023-06-10T02:27:45;11.60;99.90
22633;DHT22;11483;55.828;37.488;2023-06-10T02:30:12;11.60;99.90
22633;DHT22;11483;55.828;37.488;2023-06-10T02:32:38;11.60;99.90
22633;DHT22;11483;55.828;37.488;2023-06-10T02:35:04;11.60;99.90
22633;DHT22;11483;55.828;37.488;2023-06-10T02:37:30;11.60;99.90
22633;DHT22;11483;55.828;37.488;2023-06-10T02:39:56;11.60;99.90
22633;DHT22;11483;55.828;37.488;2023-06-10T02:42:22;11.60;99.90
22633;DHT22;11483;55.828;37.488;2023-06-10T02:44:48;11.70;99.90
22633;DHT22;11483;55.828;37.488;2023-06-10T02:47:14;11.60;99.90
22633;DHT22;11483;55.828;37.488;2023-06-10T02:49:39;11.70;99.90
22633;DHT22;11483;55.828;37.488;2023-06-10T02:52:06;11.70;99.90
22633;DHT22;11483;55.828;37.488;2023-06-10T02:54:32;11.80;99.90
22633;DHT22;11483;55.828;37.488;2023-06-10T02:56:58;11.80;99.90
22633;DHT22;11483;55.828;37.488;2023-06-10T02:59:24;11.80;99.90
22633;DHT22;11483;55.828;37.488;2023-06-10T03:01:50;11.80;99.90
22633;DHT22;11483;55.828;37.488;2023-06-10T03:04:16;11.80;99.90
22633;DHT22;11483;55.828;37.488;2023-06-10T03:06:42;11.80;99.90
22633;DHT22;11483;55.828;37.488;2023-06-10T03:09:07;11.70;99.90
22633;DHT22;11483;55.828;37.488;2023-06-10T03:11:33;11.70;99.90
22633;DHT22;11483;55.828;37.488;2023-06-10T03:13:59;11.70;99.90
22633;DHT22;11483;55.828;37.488;2023-06-10T03:16:25;11.70;99.90
22633;DHT22;11483;55.828;37.488;2023-06-10T03:18:53;11.70;99.90
22633;DHT22;11483;55.828;37.488;2023-06-10T03:21:19;11.70;99.90
22633;DHT22;11483;55.828;37.488;2023-06-10T03:23:45;11.80;99.90
22633;DHT22;11483;55.828;37.488;2023-06-10T03:26:11;11.90;99.90
22633;DHT22;11483;55.828;37.488;2023-06-10T03:28:40;11.90;99.90
22633;DHT22;11483;55.828;37.488;2023-06-10T03:31:06;12.00;99.90
22633;DHT22;11483;55.828;37.488;2023-06-10T03:33:32;12.00;99.90
22633;DHT22;11483;55.828;37.488;2023-06-10T03:35:58;12.10;99.90
22633;DHT22;11483;55.828;37.488;2023-06-10T03:38:24;12.10;99.90
22633;DHT22;11483;55.828;37.488;2023-06-10T03:40:50;12.10;99.90
22633;DHT22;11483;55.828;37.488;2023-06-10T03:43:16;12.10;99.90
22633;DHT22;11483;55.828;37.488;2023-06-10T03:45:41;12.10;99.90
22633;DHT22;11483;55.828;37.488;2023-06-10T03:48:07;12.20;99.90
22633;DHT22;11483;55.828;37.488;2023-06-10T03:50:34;12.20;99.90
22633;DHT22;11483;55.828;37.488;2023-06-10T03:53:01;12.30;99.90
22633;DHT22;11483;55.828;37.488;2023-06-10T03:55:27;12.30;99.90
22633;DHT22;11483;55.828;37.488;2023-06-10T03:57:53;12.30;99.90
22633;DHT22;11483;55.828;37.488;2023-06-10T04:00:19;12.40;99.90
22633;DHT22;11483;55.828;37.488;2023-06-10T04:02:47;12.50;99.90
22633;DHT22;11483;55.828;37.488;2023-06-10T04:05:19;12.60;99.90
22633;DHT22;11483;55.828;37.488;2023-06-10T04:07:47;12.60;99.90
22633;DHT22;11483;55.828;37.488;2023-06-10T04:10:14;12.60;99.90
22633;DHT22;11483;55.828;37.488;2023-06-10T04:12:41;12.60;99.90
22633;DHT22;11483;55.828;37.488;2023-06-10T04:15:09;12.60;99.90
22633;DHT22;11483;55.828;37.488;2023-06-10T04:17:35;12.60;99.90
22633;DHT22;11483;55.828;37.488;2023-06-10T04:20:01;12.70;99.90
22633;DHT22;11483;55.828;37.488;2023-06-10T04:22:26;12.80;99.90
22633;DHT22;11483;55.828;37.488;2023-06-10T04:24:52;12.90;99.90
22633;DHT22;11483;55.828;37.488;2023-06-10T04:27:18;12.90;99.90
22633;DHT22;11483;55.828;37.488;2023-06-10T04:29:44;13.00;99.90
22633;DHT22;11483;55.828;37.488;2023-06-10T04:32:10;13.00;99.90
22633;DHT22;11483;55.828;37.488;2023-06-10T04:34:37;13.00;99.90
22633;DHT22;11483;55.828;37.488;2023-06-10T04:37:06;13.00;99.90
22633;DHT22;11483;55.828;37.488;2023-06-10T04:39:32;13.10;99.90
22633;DHT22;11483;55.828;37.488;2023-06-10T04:41:58;13.10;99.90
22633;DHT22;11483;55.828;37.488;2023-06-10T04:44:24;13.20;99.90
22633;DHT22;11483;55.828;37.488;2023-06-10T04:46:50;13.20;99.90
22633;DHT22;11483;55.828;37.488;2023-06-10T04:49:16;13.20;99.90
22633;DHT22;11483;55.828;37.488;2023-06-10T04:51:42;13.30;99.90
22633;DHT22;11483;55.828;37.488;2023-06-10T04:54:08;13.30;99.90
22633;DHT22;11483;55.828;37.488;2023-06-10T04:56:33;13.40;99.90
22633;DHT22;11483;55.828;37.488;2023-06-10T04:59:00;13.40;99.90
22633;DHT22;11483;55.828;37.488;2023-06-10T05:01:26;13.40;99.90
22633;DHT22;11483;55.828;37.488;2023-06-10T05:03:53;13.40;99.90
22633;DHT22;11483;55.828;37.488;2023-06-10T05:06:19;13.50;99.90
22633;DHT22;11483;55.828;37.488;2023-06-10T05:08:45;13.40;99.90
22633;DHT22;11483;55.828;37.488;2023-06-10T05:11:10;13.40;99.90
22633;DHT22;11483;55.828;37.488;2023-06-10T05:13:36;13.40;99.90
22633;DHT22;11483;55.828;37.488;2023-06-10T05:16:02;13.50;99.90
22633;DHT22;11483;55.828;37.488;2023-06-10T05:18:28;13.50;99.90
22633;DHT22;11483;55.828;37.488;2023-06-10T05:20:54;13.60;99.90
22633;DHT22;11483;55.828;37.488;2023-06-10T05:23:20;13.60;99.90
22633;DHT22;11483;55.828;37.488;2023-06-10T05:25:46;13.70;99.90
22633;DHT22;11483;55.828;37.488;2023-06-10T05:28:12;13.70;99.90
22633;DHT22;11483;55.828;37.488;2023-06-10T05:30:38;13.80;99.90
22633;DHT22;11483;55.828;37.488;2023-06-10T05:33:04;13.90;99.90
22633;DHT22;11483;55.828;37.488;2023-06-10T05:35:30;13.80;99.90
22633;DHT22;11483;55.828;37.488;2023-06-10T05:37:56;13.70;99.90
22633;DHT22;11483;55.828;37.488;2023-06-10T05:40:22;13.80;99.90
22633;DHT22;11483;55.828;37.488;2023-06-10T05:42:48;13.90;99.90
22633;DHT22;11483;55.828;37.488;2023-06-10T05:45:14;13.90;99.90
22633;DHT22;11483;55.828;37.488;2023-06-10T05:47:40;13.90;99.90
22633;DHT22;11483;55.828;37.488;2023-06-10T05:50:07;13.90;99.90
22633;DHT22;11483;55.828;37.488;2023-06-10T05:52:37;14.00;99.90
22633;DHT22;11483;55.828;37.488;2023-06-10T05:55:03;14.10;99.90
22633;DHT22;11483;55.828;37.488;2023-06-10T05:57:29;14.10;99.90
22633;DHT22;11483;55.828;37.488;2023-06-10T05:59:55;14.20;99.90
22633;DHT22;11483;55.828;37.488;2023-06-10T06:02:21;14.20;99.90
22633;DHT22;11483;55.828;37.488;2023-06-10T06:04:46;14.20;99.90
22633;DHT22;11483;55.828;37.488;2023-06-10T06:07:12;14.20;99.90
22633;DHT22;11483;55.828;37.488;2023-06-10T06:09:38;14.20;99.90
22633;DHT22;11483;55.828;37.488;2023-06-10T06:12:04;14.40;99.90
22633;DHT22;11483;55.828;37.488;2023-06-10T06:14:32;14.70;99.90
22633;DHT22;11483;55.828;37.488;2023-06-10T06:16:58;15.00;99.90
22633;DHT22;11483;55.828;37.488;2023-06-10T06:19:24;15.30;99.90
22633;DHT22;11483;55.828;37.488;2023-06-10T06:21:50;15.40;99.90
22633;DHT22;11483;55.828;37.488;2023-06-10T06:24:16;15.60;99.90
22633;DHT22;11483;55.828;37.488;2023-06-10T06:26:42;15.80;99.90
22633;DHT22;11483;55.828;37.488;2023-06-10T06:29:07;15.80;99.90
22633;DHT22;11483;55.828;37.488;2023-06-10T06:31:33;15.70;99.90
22633;DHT22;11483;55.828;37.488;2023-06-10T06:33:59;15.50;99.90
22633;DHT22;11483;55.828;37.488;2023-06-10T06:36:25;15.40;99.90
22633;DHT22;11483;55.828;37.488;2023-06-10T06:38:51;15.40;99.90
22633;DHT22;11483;55.828;37.488;2023-06-10T06:41:17;15.40;99.90
22633;DHT22;11483;55.828;37.488;2023-06-10T06:43:43;15.60;99.90
22633;DHT22;11483;55.828;37.488;2023-06-10T06:46:09;15.80;99.90
22633;DHT22;11483;55.828;37.488;2023-06-10T06:48:35;16.10;99.90
22633;DHT22;11483;55.828;37.488;2023-06-10T06:51:00;16.10;99.90
22633;DHT22;11483;55.828;37.488;2023-06-10T06:53:26;16.20;99.90
22633;DHT22;11483;55.828;37.488;2023-06-10T06:55:52;16.10;99.90
22633;DHT22;11483;55.828;37.488;2023-06-10T06:58:18;16.10;99.90
22633;DHT22;11483;55.828;37.488;2023-06-10T07:00:44;16.20;99.90
22633;DHT22;11483;55.828;37.488;2023-06-10T07:03:10;16.30;99.90
22633;DHT22;11483;55.828;37.488;2023-06-10T07:05:35;16.40;99.90
22633;DHT22;11483;55.828;37.488;2023-06-10T07:08:01;16.40;99.90
22633;DHT22;11483;55.828;37.488;2023-06-10T07:10:28;16.40;99.90
22633;DHT22;11483;55.828;37.488;2023-06-10T07:12:54;16.20;99.90
22633;DHT22;11483;55.828;37.488;2023-06-10T07:15:20;16.20;99.90
22633;DHT22;11483;55.828;37.488;2023-06-10T07:17:46;16.30;99.90
22633;DHT22;11483;55.828;37.488;2023-06-10T07:20:12;16.50;99.90
22633;DHT22;11483;55.828;37.488;2023-06-10T07:22:39;16.80;99.90
22633;DHT22;11483;55.828;37.488;2023-06-10T07:25:05;17.10;99.90
22633;DHT22;11483;55.828;37.488;2023-06-10T07:27:31;17.50;99.90
22633;DHT22;11483;55.828;37.488;2023-06-10T07:29:57;17.30;99.90
22633;DHT22;11483;55.828;37.488;2023-06-10T07:32:23;17.10;99.90
22633;DHT22;11483;55.828;37.488;2023-06-10T07:34:50;16.70;99.90
22633;DHT22;11483;55.828;37.488;2023-06-10T07:37:16;16.40;99.90
22633;DHT22;11483;55.828;37.488;2023-06-10T07:39:42;16.10;99.90
22633;DHT22;11483;55.828;37.488;2023-06-10T07:42:08;16.00;99.90
22633;DHT22;11483;55.828;37.488;2023-06-10T07:44:35;15.90;99.90
22633;DHT22;11483;55.828;37.488;2023-06-10T07:47:01;15.90;99.90
22633;DHT22;11483;55.828;37.488;2023-06-10T07:49:27;15.90;99.90
22633;DHT22;11483;55.828;37.488;2023-06-10T07:51:54;16.00;99.90
22633;DHT22;11483;55.828;37.488;2023-06-10T07:54:21;16.00;99.90
22633;DHT22;11483;55.828;37.488;2023-06-10T07:56:47;16.00;99.90
22633;DHT22;11483;55.828;37.488;2023-06-10T07:59:14;16.10;99.90
22633;DHT22;11483;55.828;37.488;2023-06-10T08:01:40;16.30;99.90
22633;DHT22;11483;55.828;37.488;2023-06-10T08:04:06;16.40;99.90
22633;DHT22;11483;55.828;37.488;2023-06-10T08:06:33;16.30;99.90
22633;DHT22;11483;55.828;37.488;2023-06-10T08:08:59;16.30;99.90
22633;DHT22;11483;55.828;37.488;2023-06-10T08:11:25;16.30;99.90
22633;DHT22;11483;55.828;37.488;2023-06-10T08:13:54;16.20;99.90
22633;DHT22;11483;55.828;37.488;2023-06-10T08:16:20;16.20;99.90
22633;DHT22;11483;55.828;37.488;2023-06-10T08:18:45;16.20;99.90
22633;DHT22;11483;55.828;37.488;2023-06-10T08:21:12;16.40;99.90
22633;DHT22;11483;55.828;37.488;2023-06-10T08:23:38;16.50;98.60
22633;DHT22;11483;55.828;37.488;2023-06-10T08:26:03;16.60;98.60
22633;DHT22;11483;55.828;37.488;2023-06-10T08:28:29;16.90;98.30
22633;DHT22;11483;55.828;37.488;2023-06-10T08:30:55;17.20;97.40
22633;DHT22;11483;55.828;37.488;2023-06-10T08:33:21;17.40;96.20
22633;DHT22;11483;55.828;37.488;2023-06-10T08:35:47;17.40;94.50
22633;DHT22;11483;55.828;37.488;2023-06-10T08:38:13;17.30;94.10
22633;DHT22;11483;55.828;37.488;2023-06-10T08:40:38;17.20;94.70
22633;DHT22;11483;55.828;37.488;2023-06-10T08:43:10;17.20;95.50
22633;DHT22;11483;55.828;37.488;2023-06-10T08:45:42;17.30;95.40
22633;DHT22;11483;55.828;37.488;2023-06-10T08:48:12;17.60;95.30
22633;DHT22;11483;55.828;37.488;2023-06-10T08:50:40;18.30;95.10
22633;DHT22;11483;55.828;37.488;2023-06-10T08:53:07;18.90;93.10
22633;DHT22;11483;55.828;37.488;2023-06-10T08:55:36;20.30;90.90
22633;DHT22;11483;55.828;37.488;2023-06-10T08:58:03;22.30;84.80
22633;DHT22;11483;55.828;37.488;2023-06-10T09:00:32;23.30;77.40
22633;DHT22;11483;55.828;37.488;2023-06-10T09:02:59;22.30;73.40
22633;DHT22;11483;55.828;37.488;2023-06-10T09:05:27;22.90;73.70
22633;DHT22;11483;55.828;37.488;2023-06-10T09:07:56;22.80;71.90
22633;DHT22;11483;55.828;37.488;2023-06-10T09:10:22;21.90;71.10
22633;DHT22;11483;55.828;37.488;2023-06-10T09:12:49;21.00;72.50
22633;DHT22;11483;55.828;37.488;2023-06-10T09:15:15;20.00;75.10
22633;DHT22;11483;55.828;37.488;2023-06-10T09:17:43;19.30;77.00
22633;DHT22;11483;55.828;37.488;2023-06-10T09:20:09;19.20;77.20
22633;DHT22;11483;55.828;37.488;2023-06-10T09:22:35;19.10;76.40
22633;DHT22;11483;55.828;37.488;2023-06-10T09:25:08;18.80;76.40
22633;DHT22;11483;55.828;37.488;2023-06-10T09:27:45;18.40;77.50
22633;DHT22;11483;55.828;37.488;2023-06-10T09:30:31;18.40;79.40
22633;DHT22;11483;55.828;37.488;2023-06-10T09:32:59;18.80;79.60
22633;DHT22;11483;55.828;37.488;2023-06-10T09:35:26;20.50;79.10
22633;DHT22;11483;55.828;37.488;2023-06-10T09:37:57;22.20;73.80
22633;DHT22;11483;55.828;37.488;2023-06-10T09:40:23;21.50;72.20
22633;DHT22;11483;55.828;37.488;2023-06-10T09:42:57;20.50;72.80
22633;DHT22;11483;55.828;37.488;2023-06-10T09:45:29;20.00;75.60
22633;DHT22;11483;55.828;37.488;2023-06-10T09:47:56;19.90;77.40
22633;DHT22;11483;55.828;37.488;2023-06-10T09:50:22;20.10;74.80
22633;DHT22;11483;55.828;37.488;2023-06-10T09:52:50;21.30;75.00
22633;DHT22;11483;55.828;37.488;2023-06-10T09:55:17;21.40;70.40
22633;DHT22;11483;55.828;37.488;2023-06-10T09:57:43;21.80;69.90
22633;DHT22;11483;55.828;37.488;2023-06-10T10:00:13;22.30;67.70
22633;DHT22;11483;55.828;37.488;2023-06-10T10:02:51;22.40;68.40
22633;DHT22;11483;55.828;37.488;2023-06-10T10:05:19;23.90;65.50
22633;DHT22;11483;55.828;37.488;2023-06-10T10:07:45;25.60;63.80
22633;DHT22;11483;55.828;37.488;2023-06-10T10:10:13;25.90;60.30
22633;DHT22;11483;55.828;37.488;2023-06-10T10:12:39;24.00;60.60
22633;DHT22;11483;55.828;37.488;2023-06-10T10:15:06;22.20;62.60
22633;DHT22;11483;55.828;37.488;2023-06-10T10:17:37;20.90;63.80
22633;DHT22;11483;55.828;37.488;2023-06-10T10:20:05;20.80;65.40
22633;DHT22;11483;55.828;37.488;2023-06-10T10:22:37;20.90;64.00
22633;DHT22;11483;55.828;37.488;2023-06-10T10:25:17;20.40;64.20
22633;DHT22;11483;55.828;37.488;2023-06-10T10:28:13;21.10;66.00
22633;DHT22;11483;55.828;37.488;2023-06-10T10:30:45;23.90;65.10
22633;DHT22;11483;55.828;37.488;2023-06-10T10:33:31;26.50;58.40
22633;DHT22;11483;55.828;37.488;2023-06-10T10:35:58;27.10;56.20
22633;DHT22;11483;55.828;37.488;2023-06-10T10:38:25;27.90;55.20
22633;DHT22;11483;55.828;37.488;2023-06-10T10:40:51;28.90;51.90
22633;DHT22;11483;55.828;37.488;2023-06-10T10:43:18;28.40;51.00
22633;DHT22;11483;55.828;37.488;2023-06-10T10:45:57;27.10;50.40
22633;DHT22;11483;55.828;37.488;2023-06-10T10:48:23;26.50;50.80
22633;DHT22;11483;55.828;37.488;2023-06-10T10:50:55;26.70;51.20
22633;DHT22;11483;55.828;37.488;2023-06-10T10:53:21;27.20;51.10
22633;DHT22;11483;55.828;37.488;2023-06-10T10:55:57;27.20;50.00
22633;DHT22;11483;55.828;37.488;2023-06-10T10:58:26;28.50;50.90
22633;DHT22;11483;55.828;37.488;2023-06-10T11:00:52;30.70;50.80
22633;DHT22;11483;55.828;37.488;2023-06-10T11:03:18;32.80;47.30
22633;DHT22;11483;55.828;37.488;2023-06-10T11:05:48;32.10;44.10
22633;DHT22;11483;55.828;37.488;2023-06-10T11:08:14;29.10;43.90
22633;DHT22;11483;55.828;37.488;2023-06-10T11:10:41;26.90;45.50
22633;DHT22;11483;55.828;37.488;2023-06-10T11:15:38;27.00;47.60
22633;DHT22;11483;55.828;37.488;2023-06-10T11:18:29;27.90;47.50
22633;DHT22;11483;55.828;37.488;2023-06-10T11:21:04;29.20;47.20
22633;DHT22;11483;55.828;37.488;2023-06-10T11:23:33;30.50;46.60
22633;DHT22;11483;55.828;37.488;2023-06-10T11:26:09;29.60;45.00
22633;DHT22;11483;55.828;37.488;2023-06-10T11:28:36;27.10;46.30
22633;DHT22;11483;55.828;37.488;2023-06-10T11:31:02;25.40;46.90
22633;DHT22;11483;55.828;37.488;2023-06-10T11:33:28;24.10;48.70
22633;DHT22;11483;55.828;37.488;2023-06-10T11:35:54;22.80;50.40
22633;DHT22;11483;55.828;37.488;2023-06-10T11:38:21;22.00;52.00
22633;DHT22;11483;55.828;37.488;2023-06-10T11:40:50;22.20;52.30
22633;DHT22;11483;55.828;37.488;2023-06-10T11:43:20;23.40;52.20
22633;DHT22;11483;55.828;37.488;2023-06-10T11:45:46;24.80;51.50
22633;DHT22;11483;55.828;37.488;2023-06-10T11:48:15;27.10;50.80
22633;DHT22;11483;55.828;37.488;2023-06-10T11:50:40;29.10;46.70
22633;DHT22;11483;55.828;37.488;2023-06-10T11:53:08;29.70;46.30
22633;DHT22;11483;55.828;37.488;2023-06-10T11:55:48;30.00;45.80
22633;DHT22;11483;55.828;37.488;2023-06-10T11:58:19;29.20;45.10
22633;DHT22;11483;55.828;37.488;2023-06-10T12:00:53;27.60;45.90
22633;DHT22;11483;55.828;37.488;2023-06-10T12:03:19;27.40;47.00
22633;DHT22;11483;55.828;37.488;2023-06-10T12:05:55;27.80;46.70
22633;DHT22;11483;55.828;37.488;2023-06-10T12:08:21;26.50;47.30
22633;DHT22;11483;55.828;37.488;2023-06-10T12:10:47;24.50;50.10
22633;DHT22;11483;55.828;37.488;2023-06-10T12:13:12;23.40;52.20
22633;DHT22;11483;55.828;37.488;2023-06-10T12:15:38;23.50;52.80
22633;DHT22;11483;55.828;37.488;2023-06-10T12:18:04;23.10;52.80
22633;DHT22;11483;55.828;37.488;2023-06-10T12:20:30;22.70;53.50
22633;DHT22;11483;55.828;37.488;2023-06-10T12:23:00;22.70;53.50
22633;DHT22;11483;55.828;37.488;2023-06-10T12:25:27;22.90;53.60
22633;DHT22;11483;55.828;37.488;2023-06-10T12:27:56;22.90;53.60
22633;DHT22;11483;55.828;37.488;2023-06-10T12:30:23;22.60;54.30
22633;DHT22;11483;55.828;37.488;2023-06-10T12:32:50;22.70;53.90
22633;DHT22;11483;55.828;37.488;2023-06-10T12:35:19;22.90;53.60
22633;DHT22;11483;55.828;37.488;2023-06-10T12:38:03;23.60;53.30
22633;DHT22;11483;55.828;37.488;2023-06-10T12:40:32;23.80;52.40
22633;DHT22;11483;55.828;37.488;2023-06-10T12:42:59;22.90;53.30
22633;DHT22;11483;55.828;37.488;2023-06-10T12:45:33;23.00;55.20
22633;DHT22;11483;55.828;37.488;2023-06-10T12:48:09;24.20;54.10
22633;DHT22;11483;55.828;37.488;2023-06-10T12:50:36;24.00;52.30
22633;DHT22;11483;55.828;37.488;2023-06-10T12:53:03;23.60;52.50
22633;DHT22;11483;55.828;37.488;2023-06-10T12:55:29;23.40;52.40
22633;DHT22;11483;55.828;37.488;2023-06-10T12:57:55;23.40;52.30
22633;DHT22;11483;55.828;37.488;2023-06-10T13:00:22;22.80;52.20
22633;DHT22;11483;55.828;37.488;2023-06-10T13:02:51;22.20;52.30
22633;DHT22;11483;55.828;37.488;2023-06-10T13:05:18;22.40;52.90
22633;DHT22;11483;55.828;37.488;2023-06-10T13:07:44;23.50;51.60
22633;DHT22;11483;55.828;37.488;2023-06-10T13:10:10;24.50;51.40
22633;DHT22;11483;55.828;37.488;2023-06-10T13:12:36;24.70;51.00
22633;DHT22;11483;55.828;37.488;2023-06-10T13:15:03;23.70;52.20
22633;DHT22;11483;55.828;37.488;2023-06-10T13:17:29;22.50;54.10
22633;DHT22;11483;55.828;37.488;2023-06-10T13:19:55;21.70;55.60
22633;DHT22;11483;55.828;37.488;2023-06-10T13:22:21;21.10;56.80
22633;DHT22;11483;55.828;37.488;2023-06-10T13:24:47;20.50;58.40
22633;DHT22;11483;55.828;37.488;2023-06-10T13:27:13;20.00;59.10
22633;DHT22;11483;55.828;37.488;2023-06-10T13:29:41;19.70;60.00
22633;DHT22;11483;55.828;37.488;2023-06-10T13:32:07;19.60;59.50
22633;DHT22;11483;55.828;37.488;2023-06-10T13:34:35;19.40;59.40
22633;DHT22;11483;55.828;37.488;2023-06-10T13:37:00;19.60;60.00
22633;DHT22;11483;55.828;37.488;2023-06-10T13:39:26;20.10;60.10
22633;DHT22;11483;55.828;37.488;2023-06-10T13:41:52;21.50;59.20
22633;DHT22;11483;55.828;37.488;2023-06-10T13:44:18;22.80;56.80
22633;DHT22;11483;55.828;37.488;2023-06-10T13:46:44;22.90;54.60
22633;DHT22;11483;55.828;37.488;2023-06-10T13:49:09;22.40;54.50
22633;DHT22;11483;55.828;37.488;2023-06-10T13:51:35;23.00;55.10
22633;DHT22;11483;55.828;37.488;2023-06-10T13:54:01;23.50;53.50
22633;DHT22;11483;55.828;37.488;2023-06-10T13:56:27;23.50;53.80
22633;DHT22;11483;55.828;37.488;2023-06-10T13:58:53;24.00;54.40
22633;DHT22;11483;55.828;37.488;2023-06-10T14:01:18;24.30;53.00
22633;DHT22;11483;55.828;37.488;2023-06-10T14:03:45;24.40;53.00
22633;DHT22;11483;55.828;37.488;2023-06-10T14:06:10;24.40;52.60
22633;DHT22;11483;55.828;37.488;2023-06-10T14:08:38;24.10;52.70
22633;DHT22;11483;55.828;37.488;2023-06-10T14:11:06;23.10;53.40
22633;DHT22;11483;55.828;37.488;2023-06-10T14:13:32;22.10;54.60
22633;DHT22;11483;55.828;37.488;2023-06-10T14:15:59;21.30;56.20
22633;DHT22;11483;55.828;37.488;2023-06-10T14:18:28;20.50;57.30
22633;DHT22;11483;55.828;37.488;2023-06-10T14:20:54;19.90;58.40
22633;DHT22;11483;55.828;37.488;2023-06-10T14:23:20;19.50;59.40
22633;DHT22;11483;55.828;37.488;2023-06-10T14:25:46;19.30;60.40
22633;DHT22;11483;55.828;37.488;2023-06-10T14:28:11;19.20;60.90
22633;DHT22;11483;55.828;37.488;2023-06-10T14:30:37;19.30;60.90
22633;DHT22;11483;55.828;37.488;2023-06-10T14:33:03;19.40;60.20
22633;DHT22;11483;55.828;37.488;2023-06-10T14:35:29;19.30;59.70
22633;DHT22;11483;55.828;37.488;2023-06-10T14:37:55;19.10;60.00
22633;DHT22;11483;55.828;37.488;2023-06-10T14:40:21;19.30;60.00
22633;DHT22;11483;55.828;37.488;2023-06-10T14:42:51;20.00;59.10
22633;DHT22;11483;55.828;37.488;2023-06-10T14:45:17;21.10;58.10
22633;DHT22;11483;55.828;37.488;2023-06-10T14:47:43;22.10;56.20
22633;DHT22;11483;55.828;37.488;2023-06-10T14:50:09;22.90;56.00
22633;DHT22;11483;55.828;37.488;2023-06-10T14:52:35;22.50;55.10
22633;DHT22;11483;55.828;37.488;2023-06-10T14:55:00;21.90;55.60
22633;DHT22;11483;55.828;37.488;2023-06-10T14:57:26;21.40;56.10
22633;DHT22;11483;55.828;37.488;2023-06-10T14:59:52;21.40;56.10
22633;DHT22;11483;55.828;37.488;2023-06-10T15:02:18;21.80;55.20
22633;DHT22;11483;55.828;37.488;2023-06-10T15:04:44;22.00;54.50
22633;DHT22;11483;55.828;37.488;2023-06-10T15:07:09;22.20;54.70
22633;DHT22;11483;55.828;37.488;2023-06-10T15:09:36;22.40;53.60
22633;DHT22;11483;55.828;37.488;2023-06-10T15:12:01;22.60;52.90
22633;DHT22;11483;55.828;37.488;2023-06-10T15:14:29;22.70;52.30
22633;DHT22;11483;55.828;37.488;2023-06-10T15:16:55;22.90;52.30
22633;DHT22;11483;55.828;37.488;2023-06-10T15:19:21;23.20;51.70
22633;DHT22;11483;55.828;37.488;2023-06-10T15:21:47;23.00;51.00
22633;DHT22;11483;55.828;37.488;2023-06-10T15:24:13;23.00;51.70